sensor_id;sensor_type;location;lat;lon;timestamp;pressure;altitude;pressure_sealevel;temperature;humidity
76627;BME280;65519;53.230;10.390;2023-04-30T00:01:53;101902.59;;;7.31;64.78
76627;BME280;65519;53.230;10.390;2023-04-30T00:04:19;101903.88;;;7.28;65.90
76627;BME280;65519;53.230;10.390;2023-04-30T00:06:44;101905.09;;;7.32;65.09
76627;BME280;65519;53.230;10.390;2023-04-30T00:09:09;101905.94;;;7.33;65.30
76627;BME280;65519;53.230;10.390;2023-04-30T00:11:36;101905.53;;;7.29;65.63
76627;BME280;65519;53.230;10.390;2023-04-30T00:14:01;101909.72;;;7.25;66.04
76627;BME280;65519;53.230;10.390;2023-04-30T00:16:27;101910.59;;;7.19;65.80
76627;BME280;65519;53.230;10.390;2023-04-30T00:18:52;101909.88;;;6.99;66.48
76627;BME280;65519;53.230;10.390;2023-04-30T00:21:17;101902.09;;;7.09;66.04
76627;BME280;65519;53.230;10.390;2023-04-30T00:23:43;101917.50;;;7.15;65.11
76627;BME280;65519;53.230;10.390;2023-04-30T00:26:08;101907.53;;;7.09;65.87
76627;BME280;65519;53.230;10.390;2023-04-30T00:28:34;101915.47;;;7.04;65.76
76627;BME280;65519;53.230;10.390;2023-04-30T00:30:59;101918.31;;;7.16;65.48
76627;BME280;65519;53.230;10.390;2023-04-30T00:33:25;101917.75;;;7.07;65.80
76627;BME280;65519;53.230;10.390;2023-04-30T00:35:50;101925.13;;;6.87;66.97
76627;BME280;65519;53.230;10.390;2023-04-30T00:38:16;101925.75;;;6.89;65.95
76627;BME280;65519;53.230;10.390;2023-04-30T00:40:42;101926.78;;;6.94;66.29
76627;BME280;65519;53.230;10.390;2023-04-30T00:43:07;101927.44;;;6.90;65.54
76627;BME280;65519;53.230;10.390;2023-04-30T00:45:33;101933.84;;;7.02;66.10
76627;BME280;65519;53.230;10.390;2023-04-30T00:47:58;101931.84;;;6.78;66.49
76627;BME280;65519;53.230;10.390;2023-04-30T00:50:24;101932.06;;;6.76;66.17
76627;BME280;65519;53.230;10.390;2023-04-30T00:52:49;101932.09;;;6.70;66.83
76627;BME280;65519;53.230;10.390;2023-04-30T00:55:15;101937.91;;;6.80;66.13
76627;BME280;65519;53.230;10.390;2023-04-30T00:57:41;101932.94;;;6.70;66.43
76627;BME280;65519;53.230;10.390;2023-04-30T01:00:07;101938.94;;;6.79;65.99
76627;BME280;65519;53.230;10.390;2023-04-30T01:02:39;101951.22;;;6.75;66.45
76627;BME280;65519;53.230;10.390;2023-04-30T01:05:05;101953.56;;;6.65;67.08
76627;BME280;65519;53.230;10.390;2023-04-30T01:07:31;101956.88;;;6.73;66.14
76627;BME280;65519;53.230;10.390;2023-04-30T01:09:57;101964.00;;;6.54;66.68
76627;BME280;65519;53.230;10.390;2023-04-30T01:18:08;101974.88;;;6.48;67.41
76627;BME280;65519;53.230;10.390;2023-04-30T01:20:38;101972.38;;;6.20;67.30
76627;BME280;65519;53.230;10.390;2023-04-30T01:26:28;101973.41;;;6.06;68.77
76627;BME280;65519;53.230;10.390;2023-04-30T01:28:51;101978.84;;;6.12;68.43
76627;BME280;65519;53.230;10.390;2023-04-30T01:31:18;101974.22;;;6.06;68.94
76627;BME280;65519;53.230;10.390;2023-04-30T01:33:43;101974.88;;;6.15;68.05
76627;BME280;65519;53.230;10.390;2023-04-30T01:41:49;101981.84;;;5.50;69.55
76627;BME280;65519;53.230;10.390;2023-04-30T01:47:39;101988.69;;;5.39;70.22
76627;BME280;65519;53.230;10.390;2023-04-30T01:52:08;101988.69;;;5.53;70.19
76627;BME280;65519;53.230;10.390;2023-04-30T01:54:50;101987.66;;;5.47;70.39
76627;BME280;65519;53.230;10.390;2023-04-30T01:57:27;101999.91;;;5.43;70.99
76627;BME280;65519;53.230;10.390;2023-04-30T01:59:53;101994.50;;;5.36;70.49
76627;BME280;65519;53.230;10.390;2023-04-30T02:02:19;102007.34;;;5.28;70.71
76627;BME280;65519;53.230;10.390;2023-04-30T02:04:44;101998.69;;;5.52;70.43
76627;BME280;65519;53.230;10.390;2023-04-30T02:07:10;101995.38;;;5.63;70.04
76627;BME280;65519;53.230;10.390;2023-04-30T02:09:36;102002.09;;;5.80;69.33
76627;BME280;65519;53.230;10.390;2023-04-30T02:12:02;101999.56;;;5.59;69.91
76627;BME280;65519;53.230;10.390;2023-04-30T02:14:30;102006.88;;;5.72;69.62
76627;BME280;65519;53.230;10.390;2023-04-30T02:16:55;102006.19;;;5.50;69.96
76627;BME280;65519;53.230;10.390;2023-04-30T02:19:21;102009.97;;;5.69;69.07
76627;BME280;65519;53.230;10.390;2023-04-30T02:21:46;102007.81;;;5.44;69.60
76627;BME280;65519;53.230;10.390;2023-04-30T02:24:11;102014.88;;;5.39;70.52
76627;BME280;65519;53.230;10.390;2023-04-30T02:26:37;102006.59;;;5.47;69.98
76627;BME280;65519;53.230;10.390;2023-04-30T02:29:02;102012.31;;;5.24;70.70
76627;BME280;65519;53.230;10.390;2023-04-30T02:31:27;102011.03;;;5.13;71.29
76627;BME280;65519;53.230;10.390;2023-04-30T02:33:53;102009.19;;;5.21;71.45
76627;BME280;65519;53.230;10.390;2023-04-30T02:36:19;102016.78;;;4.97;71.63
76627;BME280;65519;53.230;10.390;2023-04-30T02:38:44;102023.00;;;4.98;72.48
76627;BME280;65519;53.230;10.390;2023-04-30T02:41:09;102017.53;;;5.26;71.61
76627;BME280;65519;53.230;10.390;2023-04-30T02:43:35;102010.91;;;5.28;70.98
76627;BME280;65519;53.230;10.390;2023-04-30T02:46:00;102019.31;;;5.05;71.29
76627;BME280;65519;53.230;10.390;2023-04-30T02:48:25;102007.47;;;5.06;71.49
76627;BME280;65519;53.230;10.390;2023-04-30T02:50:51;102008.69;;;4.97;71.55
76627;BME280;65519;53.230;10.390;2023-04-30T02:53:16;102024.63;;;4.92;71.83
76627;BME280;65519;53.230;10.390;2023-04-30T02:55:42;102011.09;;;4.86;71.45
76627;BME280;65519;53.230;10.390;2023-04-30T02:58:07;102019.16;;;4.79;72.06
76627;BME280;65519;53.230;10.390;2023-04-30T03:00:32;102015.34;;;5.01;71.21
76627;BME280;65519;53.230;10.390;2023-04-30T03:02:58;102015.78;;;5.05;70.96
76627;BME280;65519;53.230;10.390;2023-04-30T03:05:23;102003.09;;;5.05;70.80
76627;BME280;65519;53.230;10.390;2023-04-30T03:07:49;102011.44;;;4.76;72.13
76627;BME280;65519;53.230;10.390;2023-04-30T03:10:14;102014.03;;;4.91;71.43
76627;BME280;65519;53.230;10.390;2023-04-30T03:12:40;102020.25;;;4.91;71.52
76627;BME280;65519;53.230;10.390;2023-04-30T03:15:06;102026.78;;;5.03;70.75
76627;BME280;65519;53.230;10.390;2023-04-30T03:17:32;102028.41;;;4.98;70.71
76627;BME280;65519;53.230;10.390;2023-04-30T03:19:57;102020.00;;;4.80;72.01
76627;BME280;65519;53.230;10.390;2023-04-30T03:22:23;102033.63;;;4.65;72.20
76627;BME280;65519;53.230;10.390;2023-04-30T03:24:50;102029.72;;;4.74;72.54
76627;BME280;65519;53.230;10.390;2023-04-30T03:27:16;102033.31;;;4.81;71.22
76627;BME280;65519;53.230;10.390;2023-04-30T03:29:41;102036.25;;;4.86;71.85
76627;BME280;65519;53.230;10.390;2023-04-30T03:32:06;102033.22;;;4.68;71.66
76627;BME280;65519;53.230;10.390;2023-04-30T03:34:32;102033.84;;;4.70;71.55
76627;BME280;65519;53.230;10.390;2023-04-30T03:36:57;102036.19;;;4.80;71.24
76627;BME280;65519;53.230;10.390;2023-04-30T03:39:23;102034.69;;;4.70;71.45
76627;BME280;65519;53.230;10.390;2023-04-30T03:41:48;102031.16;;;4.70;71.42
76627;BME280;65519;53.230;10.390;2023-04-30T03:44:13;102040.38;;;4.82;71.26
76627;BME280;65519;53.230;10.390;2023-04-30T03:46:40;102031.16;;;4.70;71.18
76627;BME280;65519;53.230;10.390;2023-04-30T03:49:07;102044.69;;;4.76;71.76
76627;BME280;65519;53.230;10.390;2023-04-30T03:51:33;102043.41;;;4.45;71.60
76627;BME280;65519;53.230;10.390;2023-04-30T03:54:01;102047.69;;;4.11;73.17
76627;BME280;65519;53.230;10.390;2023-04-30T03:56:26;102048.25;;;4.00;73.78
76627;BME280;65519;53.230;10.390;2023-04-30T03:58:51;102059.22;;;3.98;73.56
76627;BME280;65519;53.230;10.390;2023-04-30T04:01:17;102049.50;;;3.83;73.80
76627;BME280;65519;53.230;10.390;2023-04-30T04:03:42;102049.59;;;3.89;73.54
76627;BME280;65519;53.230;10.390;2023-04-30T04:06:07;102051.34;;;3.82;73.97
76627;BME280;65519;53.230;10.390;2023-04-30T04:08:33;102054.75;;;3.70;74.42
76627;BME280;65519;53.230;10.390;2023-04-30T04:10:58;102057.63;;;3.68;74.55
76627;BME280;65519;53.230;10.390;2023-04-30T04:13:24;102061.06;;;3.77;73.88
76627;BME280;65519;53.230;10.390;2023-04-30T04:15:49;102065.34;;;3.71;74.13
76627;BME280;65519;53.230;10.390;2023-04-30T04:18:15;102066.84;;;4.16;73.56
76627;BME280;65519;53.230;10.390;2023-04-30T04:20:40;102064.84;;;4.03;73.14
76627;BME280;65519;53.230;10.390;2023-04-30T04:23:06;102071.22;;;3.96;74.01
76627;BME280;65519;53.230;10.390;2023-04-30T04:25:31;102066.06;;;4.22;73.25
76627;BME280;65519;53.230;10.390;2023-04-30T04:27:57;102065.56;;;4.12;73.37
76627;BME280;65519;53.230;10.390;2023-04-30T04:30:22;102075.00;;;4.01;74.02
76627;BME280;65519;53.230;10.390;2023-04-30T04:32:48;102080.53;;;3.93;74.11
76627;BME280;65519;53.230;10.390;2023-04-30T04:35:16;102074.63;;;4.04;73.84
76627;BME280;65519;53.230;10.390;2023-04-30T04:37:43;102078.34;;;4.03;74.11
76627;BME280;65519;53.230;10.390;2023-04-30T04:40:08;102083.69;;;3.97;74.35
76627;BME280;65519;53.230;10.390;2023-04-30T04:42:36;102073.88;;;3.89;74.62
76627;BME280;65519;53.230;10.390;2023-04-30T04:45:06;102089.47;;;3.94;74.91
76627;BME280;65519;53.230;10.390;2023-04-30T04:47:32;102086.09;;;3.92;74.73
76627;BME280;65519;53.230;10.390;2023-04-30T04:49:57;102095.69;;;3.94;74.54
76627;BME280;65519;53.230;10.390;2023-04-30T04:52:23;102094.38;;;3.90;75.14
76627;BME280;65519;53.230;10.390;2023-04-30T04:54:48;102102.25;;;4.07;75.01
76627;BME280;65519;53.230;10.390;2023-04-30T04:57:13;102106.81;;;4.06;74.97
76627;BME280;65519;53.230;10.390;2023-04-30T04:59:39;102108.16;;;4.17;74.96
76627;BME280;65519;53.230;10.390;2023-04-30T05:02:04;102115.94;;;4.26;74.73
76627;BME280;65519;53.230;10.390;2023-04-30T05:04:29;102115.44;;;4.16;74.99
76627;BME280;65519;53.230;10.390;2023-04-30T05:06:55;102118.84;;;4.25;75.06
76627;BME280;65519;53.230;10.390;2023-04-30T05:09:20;102115.69;;;4.21;75.49
76627;BME280;65519;53.230;10.390;2023-04-30T05:11:46;102120.97;;;4.29;75.20
76627;BME280;65519;53.230;10.390;2023-04-30T05:14:13;102124.69;;;4.28;75.10
76627;BME280;65519;53.230;10.390;2023-04-30T05:16:38;102117.16;;;4.24;75.09
76627;BME280;65519;53.230;10.390;2023-04-30T05:19:04;102126.22;;;4.37;75.00
76627;BME280;65519;53.230;10.390;2023-04-30T05:21:29;102133.81;;;4.49;74.97
76627;BME280;65519;53.230;10.390;2023-04-30T05:23:56;102127.44;;;4.56;74.26
76627;BME280;65519;53.230;10.390;2023-04-30T05:26:22;102124.16;;;4.61;74.45
76627;BME280;65519;53.230;10.390;2023-04-30T05:28:48;102136.75;;;4.75;74.40
76627;BME280;65519;53.230;10.390;2023-04-30T05:31:14;102138.13;;;4.92;73.92
76627;BME280;65519;53.230;10.390;2023-04-30T05:33:40;102134.97;;;4.89;73.68
76627;BME280;65519;53.230;10.390;2023-04-30T05:36:06;102130.66;;;4.94;73.54
76627;BME280;65519;53.230;10.390;2023-04-30T05:38:31;102128.47;;;5.11;73.09
76627;BME280;65519;53.230;10.390;2023-04-30T05:40:57;102130.91;;;5.34;72.52
76627;BME280;65519;53.230;10.390;2023-04-30T05:43:22;102136.00;;;5.16;72.30
76627;BME280;65519;53.230;10.390;2023-04-30T05:45:47;102147.59;;;5.37;72.40
76627;BME280;65519;53.230;10.390;2023-04-30T05:48:13;102147.88;;;5.56;71.73
76627;BME280;65519;53.230;10.390;2023-04-30T05:50:38;102144.13;;;5.50;71.70
76627;BME280;65519;53.230;10.390;2023-04-30T05:53:04;102153.22;;;5.83;70.54
76627;BME280;65519;53.230;10.390;2023-04-30T05:55:29;102146.09;;;5.76;71.43
76627;BME280;65519;53.230;10.390;2023-04-30T05:57:55;102146.47;;;5.66;71.02
76627;BME280;65519;53.230;10.390;2023-04-30T06:00:20;102141.13;;;5.79;70.92
76627;BME280;65519;53.230;10.390;2023-04-30T06:02:46;102154.31;;;5.89;70.22
76627;BME280;65519;53.230;10.390;2023-04-30T06:05:11;102148.72;;;5.97;69.92
76627;BME280;65519;53.230;10.390;2023-04-30T06:07:37;102148.97;;;6.09;69.59
76627;BME280;65519;53.230;10.390;2023-04-30T06:10:02;102152.06;;;6.06;69.59
76627;BME280;65519;53.230;10.390;2023-04-30T06:12:28;102145.41;;;6.02;69.75
76627;BME280;65519;53.230;10.390;2023-04-30T06:14:53;102152.16;;;6.32;69.06
76627;BME280;65519;53.230;10.390;2023-04-30T06:17:19;102155.06;;;6.24;68.21
76627;BME280;65519;53.230;10.390;2023-04-30T06:19:44;102153.81;;;6.33;68.63
76627;BME280;65519;53.230;10.390;2023-04-30T06:22:09;102149.63;;;6.31;68.11
76627;BME280;65519;53.230;10.390;2023-04-30T06:24:35;102155.94;;;6.44;68.00
76627;BME280;65519;53.230;10.390;2023-04-30T06:27:00;102151.31;;;6.38;66.77
76627;BME280;65519;53.230;10.390;2023-04-30T06:29:27;102151.75;;;6.62;66.09
76627;BME280;65519;53.230;10.390;2023-04-30T06:31:53;102150.94;;;6.61;65.52
76627;BME280;65519;53.230;10.390;2023-04-30T06:34:18;102155.13;;;6.77;64.94
76627;BME280;65519;53.230;10.390;2023-04-30T06:36:45;102156.78;;;6.78;64.09
76627;BME280;65519;53.230;10.390;2023-04-30T06:39:14;102159.09;;;6.81;64.10
76627;BME280;65519;53.230;10.390;2023-04-30T06:41:39;102157.41;;;7.06;63.83
76627;BME280;65519;53.230;10.390;2023-04-30T06:44:05;102157.00;;;7.09;63.98
76627;BME280;65519;53.230;10.390;2023-04-30T06:46:30;102153.22;;;7.10;63.19
76627;BME280;65519;53.230;10.390;2023-04-30T06:48:56;102153.03;;;7.12;61.63
76627;BME280;65519;53.230;10.390;2023-04-30T06:51:21;102156.50;;;7.39;61.69
76627;BME280;65519;53.230;10.390;2023-04-30T06:53:46;102156.91;;;7.55;59.35
76627;BME280;65519;53.230;10.390;2023-04-30T06:56:12;102168.34;;;7.64;57.83
76627;BME280;65519;53.230;10.390;2023-04-30T06:58:37;102164.81;;;7.63;56.86
76627;BME280;65519;53.230;10.390;2023-04-30T07:01:02;102174.63;;;7.64;57.33
76627;BME280;65519;53.230;10.390;2023-04-30T07:03:28;102176.47;;;7.70;55.94
76627;BME280;65519;53.230;10.390;2023-04-30T07:05:53;102169.34;;;7.76;56.35
76627;BME280;65519;53.230;10.390;2023-04-30T07:08:19;102172.88;;;7.83;56.15
76627;BME280;65519;53.230;10.390;2023-04-30T07:10:45;102180.19;;;7.83;57.55
76627;BME280;65519;53.230;10.390;2023-04-30T07:13:10;102181.22;;;7.88;57.90
76627;BME280;65519;53.230;10.390;2023-04-30T07:15:36;102172.81;;;7.96;57.23
76627;BME280;65519;53.230;10.390;2023-04-30T07:18:01;102178.63;;;8.06;56.42
76627;BME280;65519;53.230;10.390;2023-04-30T07:20:28;102178.31;;;8.28;55.36
76627;BME280;65519;53.230;10.390;2023-04-30T07:22:53;102177.25;;;8.35;55.61
76627;BME280;65519;53.230;10.390;2023-04-30T07:25:19;102181.50;;;8.56;55.24
76627;BME280;65519;53.230;10.390;2023-04-30T07:27:45;102180.44;;;8.57;54.85
76627;BME280;65519;53.230;10.390;2023-04-30T07:30:11;102172.69;;;8.61;55.74
76627;BME280;65519;53.230;10.390;2023-04-30T07:32:37;102180.03;;;8.60;54.78
76627;BME280;65519;53.230;10.390;2023-04-30T07:35:04;102178.69;;;8.69;55.50
76627;BME280;65519;53.230;10.390;2023-04-30T07:37:30;102180.03;;;8.60;56.97
76627;BME280;65519;53.230;10.390;2023-04-30T07:39:55;102187.63;;;8.76;54.13
76627;BME280;65519;53.230;10.390;2023-04-30T07:42:21;102185.59;;;8.65;53.84
76627;BME280;65519;53.230;10.390;2023-04-30T07:44:46;102171.78;;;8.73;54.85
76627;BME280;65519;53.230;10.390;2023-04-30T07:47:13;102185.59;;;8.97;53.93
76627;BME280;65519;53.230;10.390;2023-04-30T07:49:38;102188.38;;;8.90;54.04
76627;BME280;65519;53.230;10.390;2023-04-30T07:52:03;102180.09;;;9.03;54.76
76627;BME280;65519;53.230;10.390;2023-04-30T07:54:30;102185.66;;;9.15;52.91
76627;BME280;65519;53.230;10.390;2023-04-30T07:56:55;102186.25;;;9.17;53.77
76627;BME280;65519;53.230;10.390;2023-04-30T07:59:21;102182.84;;;9.22;54.07
76627;BME280;65519;53.230;10.390;2023-04-30T08:01:49;102191.00;;;9.46;53.96
76627;BME280;65519;53.230;10.390;2023-04-30T08:04:14;102186.47;;;9.59;53.54
76627;BME280;65519;53.230;10.390;2023-04-30T08:06:40;102182.53;;;9.55;53.82
76627;BME280;65519;53.230;10.390;2023-04-30T08:09:06;102182.75;;;9.53;51.94
76627;BME280;65519;53.230;10.390;2023-04-30T08:11:31;102177.69;;;9.75;51.65
76627;BME280;65519;53.230;10.390;2023-04-30T08:13:56;102174.22;;;9.68;53.13
76627;BME280;65519;53.230;10.390;2023-04-30T08:16:22;102172.84;;;9.77;52.36
76627;BME280;65519;53.230;10.390;2023-04-30T08:18:47;102182.00;;;9.64;51.70
76627;BME280;65519;53.230;10.390;2023-04-30T08:21:14;102178.75;;;9.74;51.64
76627;BME280;65519;53.230;10.390;2023-04-30T08:23:39;102178.66;;;9.99;52.11
76627;BME280;65519;53.230;10.390;2023-04-30T08:26:05;102173.31;;;9.92;50.51
76627;BME280;65519;53.230;10.390;2023-04-30T08:28:30;102179.06;;;9.84;51.36
76627;BME280;65519;53.230;10.390;2023-04-30T08:30:56;102191.75;;;9.90;51.71
76627;BME280;65519;53.230;10.390;2023-04-30T08:33:21;102189.34;;;10.00;52.35
76627;BME280;65519;53.230;10.390;2023-04-30T08:35:46;102183.56;;;10.08;51.83
76627;BME280;65519;53.230;10.390;2023-04-30T08:38:12;102180.09;;;10.01;50.25
76627;BME280;65519;53.230;10.390;2023-04-30T08:40:38;102186.75;;;10.23;50.91
76627;BME280;65519;53.230;10.390;2023-04-30T08:43:06;102183.63;;;10.38;50.74
76627;BME280;65519;53.230;10.390;2023-04-30T08:45:32;102188.78;;;9.37;49.20
76627;BME280;65519;53.230;10.390;2023-04-30T08:47:59;102186.69;;;9.57;48.97
76627;BME280;65519;53.230;10.390;2023-04-30T08:50:25;102183.06;;;9.81;50.42
76627;BME280;65519;53.230;10.390;2023-04-30T08:52:51;102176.25;;;9.91;50.48
76627;BME280;65519;53.230;10.390;2023-04-30T08:55:16;102182.94;;;10.06;51.42
76627;BME280;65519;53.230;10.390;2023-04-30T08:57:41;102170.72;;;10.15;50.52
76627;BME280;65519;53.230;10.390;2023-04-30T09:00:07;102181.91;;;10.26;50.30
76627;BME280;65519;53.230;10.390;2023-04-30T09:02:34;102165.97;;;10.41;50.22
76627;BME280;65519;53.230;10.390;2023-04-30T09:05:08;102168.88;;;10.28;48.55
76627;BME280;65519;53.230;10.390;2023-04-30T09:07:35;102189.66;;;10.40;50.30
76627;BME280;65519;53.230;10.390;2023-04-30T09:10:02;102181.91;;;10.55;50.91
76627;BME280;65519;53.230;10.390;2023-04-30T09:12:29;102185.97;;;10.76;51.34
76627;BME280;65519;53.230;10.390;2023-04-30T09:14:58;102185.78;;;10.89;49.21
76627;BME280;65519;53.230;10.390;2023-04-30T09:17:24;102178.44;;;10.90;49.98
76627;BME280;65519;53.230;10.390;2023-04-30T09:19:51;102193.00;;;10.95;48.97
76627;BME280;65519;53.230;10.390;2023-04-30T09:22:21;102197.19;;;10.98;47.69
76627;BME280;65519;53.230;10.390;2023-04-30T09:24:48;102194.25;;;11.23;49.12
76627;BME280;65519;53.230;10.390;2023-04-30T09:27:19;102187.72;;;11.36;49.65
76627;BME280;65519;53.230;10.390;2023-04-30T09:29:45;102186.16;;;11.51;48.38
76627;BME280;65519;53.230;10.390;2023-04-30T09:32:11;102186.38;;;11.50;48.73
76627;BME280;65519;53.230;10.390;2023-04-30T09:34:37;102186.75;;;11.65;50.14
76627;BME280;65519;53.230;10.390;2023-04-30T09:37:03;102179.72;;;11.69;48.74
76627;BME280;65519;53.230;10.390;2023-04-30T09:39:29;102175.22;;;11.63;46.52
76627;BME280;65519;53.230;10.390;2023-04-30T09:42:06;102175.06;;;11.69;46.66
76627;BME280;65519;53.230;10.390;2023-04-30T09:44:39;102162.25;;;11.82;50.08
76627;BME280;65519;53.230;10.390;2023-04-30T09:47:15;102167.72;;;11.82;47.80
76627;BME280;65519;53.230;10.390;2023-04-30T09:49:50;102169.28;;;11.89;46.43
76627;BME280;65519;53.230;10.390;2023-04-30T09:52:17;102164.13;;;11.93;45.67
76627;BME280;65519;53.230;10.390;2023-04-30T09:54:44;102150.22;;;11.94;46.49
76627;BME280;65519;53.230;10.390;2023-04-30T09:57:12;102162.41;;;12.15;47.89
76627;BME280;65519;53.230;10.390;2023-04-30T09:59:44;102164.44;;;11.56;43.27
76627;BME280;65519;53.230;10.390;2023-04-30T10:02:13;102160.31;;;11.94;45.66
76627;BME280;65519;53.230;10.390;2023-04-30T10:04:42;102150.63;;;12.15;46.45
76627;BME280;65519;53.230;10.390;2023-04-30T10:09:47;102161.13;;;12.34;43.56
76627;BME280;65519;53.230;10.390;2023-04-30T10:12:14;102150.19;;;12.06;43.34
76627;BME280;65519;53.230;10.390;2023-04-30T10:15:05;102144.75;;;11.94;42.90
76627;BME280;65519;53.230;10.390;2023-04-30T10:17:36;102132.56;;;11.74;43.76
76627;BME280;65519;53.230;10.390;2023-04-30T10:20:05;102147.66;;;12.16;47.41
76627;BME280;65519;53.230;10.390;2023-04-30T10:22:33;102148.22;;;11.90;43.27
76627;BME280;65519;53.230;10.390;2023-04-30T10:25:00;102142.47;;;12.03;43.91
76627;BME280;65519;53.230;10.390;2023-04-30T10:27:26;102128.94;;;12.25;43.85
76627;BME280;65519;53.230;10.390;2023-04-30T10:29:53;102130.06;;;12.57;46.22
76627;BME280;65519;53.230;10.390;2023-04-30T10:32:19;102126.03;;;12.60;43.31
76627;BME280;65519;53.230;10.390;2023-04-30T10:37:48;102138.63;;;12.61;43.46
76627;BME280;65519;53.230;10.390;2023-04-30T10:40:15;102131.50;;;12.93;44.24
76627;BME280;65519;53.230;10.390;2023-04-30T10:42:47;102133.97;;;13.11;42.48
76627;BME280;65519;53.230;10.390;2023-04-30T10:45:15;102138.06;;;13.26;43.08
76627;BME280;65519;53.230;10.390;2023-04-30T10:47:44;102114.72;;;13.23;40.48
76627;BME280;65519;53.230;10.390;2023-04-30T10:50:12;102123.88;;;12.62;39.94
76627;BME280;65519;53.230;10.390;2023-04-30T10:52:38;102120.91;;;12.97;41.27
76627;BME280;65519;53.230;10.390;2023-04-30T10:55:07;102120.22;;;13.06;41.27
76627;BME280;65519;53.230;10.390;2023-04-30T10:57:40;102110.41;;;13.10;39.45
76627;BME280;65519;53.230;10.390;2023-04-30T11:02:43;102118.53;;;13.39;38.76
76627;BME280;65519;53.230;10.390;2023-04-30T11:07:35;102105.81;;;13.71;40.58
76627;BME280;65519;53.230;10.390;2023-04-30T11:10:01;102109.84;;;13.91;42.31
76627;BME280;65519;53.230;10.390;2023-04-30T11:12:27;102109.47;;;14.04;41.65
76627;BME280;65519;53.230;10.390;2023-04-30T11:15:12;102095.72;;;13.77;38.68
76627;BME280;65519;53.230;10.390;2023-04-30T11:17:38;102097.84;;;13.97;39.95
76627;BME280;65519;53.230;10.390;2023-04-30T11:20:04;102093.69;;;14.16;42.33
76627;BME280;65519;53.230;10.390;2023-04-30T11:22:29;102095.44;;;14.27;40.07
76627;BME280;65519;53.230;10.390;2023-04-30T11:27:32;102094.00;;;14.46;37.00
76627;BME280;65519;53.230;10.390;2023-04-30T11:29:58;102089.91;;;14.22;36.89
76627;BME280;65519;53.230;10.390;2023-04-30T11:32:26;102085.88;;;14.03;36.41
76627;BME280;65519;53.230;10.390;2023-04-30T11:34:56;102079.25;;;14.25;38.58
76627;BME280;65519;53.230;10.390;2023-04-30T11:37:35;102081.47;;;14.60;37.98
76627;BME280;65519;53.230;10.390;2023-04-30T11:40:06;102083.28;;;14.77;35.92
76627;BME280;65519;53.230;10.390;2023-04-30T11:42:33;102084.69;;;14.79;35.92
76627;BME280;65519;53.230;10.390;2023-04-30T11:45:09;102080.53;;;14.77;34.76
76627;BME280;65519;53.230;10.390;2023-04-30T11:47:52;102080.34;;;14.93;35.25
76627;BME280;65519;53.230;10.390;2023-04-30T11:50:20;102078.81;;;15.03;35.11
76627;BME280;65519;53.230;10.390;2023-04-30T11:52:51;102074.72;;;15.15;36.23
76627;BME280;65519;53.230;10.390;2023-04-30T11:55:21;102062.31;;;15.03;34.32
76627;BME280;65519;53.230;10.390;2023-04-30T11:57:48;102058.41;;;14.93;35.11
76627;BME280;65519;53.230;10.390;2023-04-30T12:02:44;102071.16;;;15.62;38.07
76627;BME280;65519;53.230;10.390;2023-04-30T12:05:20;102065.78;;;16.23;43.77
76627;BME280;65519;53.230;10.390;2023-04-30T12:07:53;102055.59;;;16.23;36.39
76627;BME280;65519;53.230;10.390;2023-04-30T12:10:20;102061.75;;;15.53;35.14
76627;BME280;65519;53.230;10.390;2023-04-30T12:12:47;102055.94;;;15.49;34.73
76627;BME280;65519;53.230;10.390;2023-04-30T12:15:17;102051.94;;;15.67;34.27
76627;BME280;65519;53.230;10.390;2023-04-30T12:17:44;102046.59;;;15.50;33.07
76627;BME280;65519;53.230;10.390;2023-04-30T12:20:12;102051.69;;;15.84;35.30
76627;BME280;65519;53.230;10.390;2023-04-30T12:22:39;102047.53;;;15.66;32.41
76627;BME280;65519;53.230;10.390;2023-04-30T12:25:15;102047.88;;;16.05;34.81
76627;BME280;65519;53.230;10.390;2023-04-30T12:27:45;102050.69;;;16.20;32.39
76627;BME280;65519;53.230;10.390;2023-04-30T12:30:11;102032.50;;;16.34;33.26
76627;BME280;65519;53.230;10.390;2023-04-30T12:32:41;102041.31;;;16.21;31.08
76627;BME280;65519;53.230;10.390;2023-04-30T12:35:08;102029.22;;;16.42;33.01
76627;BME280;65519;53.230;10.390;2023-04-30T12:37:34;102047.66;;;16.83;32.81
76627;BME280;65519;53.230;10.390;2023-04-30T12:39:59;102041.56;;;16.96;31.85
76627;BME280;65519;53.230;10.390;2023-04-30T12:42:30;102041.03;;;16.84;30.85
76627;BME280;65519;53.230;10.390;2023-04-30T12:44:58;102033.66;;;16.64;31.06
76627;BME280;65519;53.230;10.390;2023-04-30T12:47:23;102044.06;;;16.77;30.85
76627;BME280;65519;53.230;10.390;2023-04-30T12:49:49;102032.78;;;16.58;30.60
76627;BME280;65519;53.230;10.390;2023-04-30T12:52:14;102038.03;;;16.70;30.99
76627;BME280;65519;53.230;10.390;2023-04-30T12:54:40;102023.06;;;17.11;31.57
76627;BME280;65519;53.230;10.390;2023-04-30T12:57:08;102027.19;;;17.09;30.35
76627;BME280;65519;53.230;10.390;2023-04-30T13:02:22;102016.75;;;17.01;31.09
76627;BME280;65519;53.230;10.390;2023-04-30T13:04:48;102011.22;;;17.11;31.42
76627;BME280;65519;53.230;10.390;2023-04-30T13:07:15;102002.03;;;17.36;30.83
76627;BME280;65519;53.230;10.390;2023-04-30T13:09:40;102005.06;;;17.39;30.99
76627;BME280;65519;53.230;10.390;2023-04-30T13:12:06;102001.63;;;17.68;32.89
76627;BME280;65519;53.230;10.390;2023-04-30T13:14:32;102000.66;;;17.87;32.35
76627;BME280;65519;53.230;10.390;2023-04-30T13:16:57;101995.88;;;17.98;30.25
76627;BME280;65519;53.230;10.390;2023-04-30T13:19:23;102001.34;;;18.08;29.87
76627;BME280;65519;53.230;10.390;2023-04-30T13:21:48;101996.19;;;18.31;30.23